Coconut Island, Australia
Current Conditions -  °F | °C
As of 12:30 PM on Saturday 25 Oct 2014 (Local Time) from YHID Reporting Station
NA  
Wind Chill: 84°   Ceiling: NA
Heat Index: 86°   Visibility: 6mi
Dew Point: 66°   Wind: 22mph
Humidity: 55%   Direction: 100°E
Pressure: 29.91"   Gusts: NA
Location:  10.05°S, 143.07°E
Report Text: YHID 250230Z AUTO 10019KT 9999 // ////// 29/19 Q1013
Loading
Personal Weather Stations






























Interactive Weather Map
Tropical Storm Tracking
New forecast layout! Learn more

10-Day Weather Forecast

Advertisements
Track Severe Weather on mobile